Time;durP1;ratioP1;P1;durP2;ratioP2;P2;SDS_P1;SDS_P2;PMS_P1;PMS_P2;Temp;Humidity;BMP_temperature;BMP_pressure;BME280_temperature;BME280_humidity;BME280_pressure;Samples;Min_cycle;Max_cycle;Signal;HPM_P1;HPM_P2
2021/09/11 00:01:58;;;;;;;5.70;2.95;;;18.80;99.90;;;;;;5077740;28;20035;-83
2021/09/11 00:04:24;;;;;;;2.95;2.60;;;18.90;99.90;;;;;;5075972;28;20035;-83
2021/09/11 00:06:49;;;;;;;3.70;3.40;;;18.80;99.90;;;;;;5091484;28;20479;-82
2021/09/11 00:09:15;;;;;;;3.97;2.95;;;18.80;99.90;;;;;;5089613;28;20655;-82
2021/09/11 00:11:40;;;;;;;5.22;3.08;;;18.80;99.90;;;;;;5073928;28;20476;-82
2021/09/11 00:14:06;;;;;;;3.33;2.70;;;18.80;99.90;;;;;;5091638;28;20031;-82
2021/09/11 00:16:33;;;;;;;4.03;3.13;;;18.90;99.90;;;;;;5090947;27;20147;-82
2021/09/11 00:18:59;;;;;;;4.85;2.95;;;18.90;99.90;;;;;;5075438;27;20028;-82
2021/09/11 00:21:25;;;;;;;3.95;3.00;;;18.80;99.90;;;;;;5079633;28;20023;-82
2021/09/11 00:23:50;;;;;;;5.00;2.83;;;18.90;99.90;;;;;;5090623;28;20036;-81
2021/09/11 00:26:16;;;;;;;5.25;2.50;;;18.80;99.90;;;;;;5087496;28;20032;-82
2021/09/11 00:28:41;;;;;;;6.18;2.53;;;18.80;99.90;;;;;;5076933;28;20098;-82
2021/09/11 00:31:07;;;;;;;5.38;2.95;;;18.80;99.90;;;;;;5075802;28;20556;-82
2021/09/11 00:33:33;;;;;;;4.22;2.75;;;18.80;99.90;;;;;;5074878;28;20031;-82
2021/09/11 00:35:58;;;;;;;5.82;3.58;;;18.80;99.90;;;;;;5093060;28;20028;-82
2021/09/11 00:38:24;;;;;;;4.30;3.03;;;18.80;99.90;;;;;;5084317;28;20032;-82
2021/09/11 00:40:50;;;;;;;6.75;3.67;;;18.80;99.90;;;;;;5091801;28;20552;-82
2021/09/11 00:43:22;;;;;;;3.92;3.30;;;18.70;99.90;;;;;;5076249;27;20110;-83
2021/09/11 00:45:48;;;;;;;3.83;3.22;;;18.80;99.90;;;;;;5076102;28;20031;-82
2021/09/11 00:48:13;;;;;;;7.20;3.65;;;18.70;99.90;;;;;;5075405;28;20028;-82
2021/09/11 00:50:39;;;;;;;4.93;2.92;;;18.70;99.90;;;;;;5076209;28;20036;-83
2021/09/11 00:53:04;;;;;;;4.53;3.40;;;18.70;99.90;;;;;;5071881;28;20028;-83
2021/09/11 00:55:30;;;;;;;3.70;3.10;;;18.70;99.90;;;;;;5074489;27;20043;-82
2021/09/11 00:57:55;;;;;;;6.40;3.67;;;18.70;99.90;;;;;;5085735;28;20040;-81
2021/09/11 01:00:21;;;;;;;3.78;3.33;;;18.70;99.90;;;;;;5104160;27;20039;-82
2021/09/11 01:02:47;;;;;;;5.60;3.38;;;18.70;99.90;;;;;;5072012;28;20557;-83
2021/09/11 01:05:12;;;;;;;5.60;3.78;;;18.70;99.90;;;;;;5087508;28;20035;-83
2021/09/11 01:07:39;;;;;;;6.07;3.65;;;18.70;99.90;;;;;;5103475;28;20035;-82
2021/09/11 01:10:06;;;;;;;5.03;4.00;;;18.70;99.90;;;;;;5072733;28;20040;-82
2021/09/11 01:12:31;;;;;;;9.18;3.45;;;18.70;99.90;;;;;;5100997;28;20082;-83
2021/09/11 01:15:01;;;;;;;6.22;4.30;;;18.70;99.90;;;;;;5096571;28;20028;-82
2021/09/11 01:17:27;;;;;;;5.50;3.70;;;18.70;99.90;;;;;;5074687;28;20431;-83
2021/09/11 01:19:52;;;;;;;7.15;3.90;;;18.80;99.90;;;;;;5089114;28;20111;-82
2021/09/11 01:22:18;;;;;;;5.97;3.95;;;18.70;99.90;;;;;;5073270;28;20483;-82
2021/09/11 01:24:59;;;;;;;5.03;3.22;;;18.70;99.90;;;;;;5086910;27;20486;-82
2021/09/11 01:27:26;;;;;;;5.88;3.50;;;18.80;99.90;;;;;;5085021;28;20027;-82
2021/09/11 01:30:08;;;;;;;4.95;3.55;;;18.90;99.90;;;;;;5089573;27;20036;-82
2021/09/11 01:32:34;;;;;;;6.20;3.95;;;18.80;99.90;;;;;;5072362;28;20498;-82
2021/09/11 01:34:59;;;;;;;5.35;3.53;;;18.90;99.90;;;;;;5091503;28;20034;-82
2021/09/11 01:37:25;;;;;;;6.65;4.05;;;18.90;99.90;;;;;;5082248;28;20028;-82
2021/09/11 01:39:50;;;;;;;6.15;5.05;;;18.80;99.90;;;;;;5073484;28;20395;-83
2021/09/11 01:42:17;;;;;;;4.95;3.92;;;18.90;99.90;;;;;;5073466;28;20024;-82
2021/09/11 01:44:56;;;;;;;5.55;3.83;;;18.80;99.90;;;;;;5071738;28;20027;-82
2021/09/11 01:47:22;;;;;;;9.10;5.20;;;18.90;99.90;;;;;;5095565;28;20035;-82
2021/09/11 01:49:48;;;;;;;8.50;4.15;;;18.90;99.90;;;;;;5087702;28;20453;-82
2021/09/11 01:52:13;;;;;;;5.78;4.55;;;18.90;99.90;;;;;;5090510;28;20118;-82
2021/09/11 01:54:39;;;;;;;7.65;3.95;;;18.90;99.90;;;;;;5074879;28;20050;-83
2021/09/11 01:57:06;;;;;;;7.70;5.63;;;18.90;99.90;;;;;;5085798;28;20016;-82
2021/09/11 01:59:31;;;;;;;8.50;5.43;;;18.90;99.90;;;;;;5107574;27;20035;-83
2021/09/11 02:01:57;;;;;;;6.45;5.75;;;18.90;99.90;;;;;;5092178;28;20391;-82
2021/09/11 02:04:22;;;;;;;8.85;5.65;;;19.00;99.90;;;;;;5074564;28;20048;-82
2021/09/11 02:06:48;;;;;;;6.43;5.47;;;18.90;99.90;;;;;;5075445;28;20136;-83
2021/09/11 02:09:14;;;;;;;9.50;8.43;;;19.00;99.90;;;;;;5075006;28;20418;-82
2021/09/11 02:11:39;;;;;;;9.65;7.18;;;19.00;99.90;;;;;;5071121;28;20084;-83
2021/09/11 02:14:05;;;;;;;9.57;6.65;;;18.90;99.90;;;;;;5070284;28;20047;-83
2021/09/11 02:16:30;;;;;;;9.10;6.93;;;18.90;99.90;;;;;;5072252;28;20053;-83
2021/09/11 02:18:56;;;;;;;13.10;6.95;;;18.90;99.90;;;;;;5086277;28;20448;-82
2021/09/11 02:21:21;;;;;;;9.82;7.25;;;18.90;99.90;;;;;;5070112;28;20889;-82
2021/09/11 02:23:48;;;;;;;8.90;6.32;;;18.90;99.90;;;;;;5073981;28;20505;-82
2021/09/11 02:26:13;;;;;;;11.27;7.72;;;18.90;99.90;;;;;;5068120;28;20059;-83
2021/09/11 02:28:40;;;;;;;11.18;7.03;;;18.90;99.90;;;;;;5072623;28;20110;-83
2021/09/11 02:31:05;;;;;;;17.90;10.55;;;19.00;99.90;;;;;;5082315;28;20054;-81
2021/09/11 02:33:31;;;;;;;10.13;8.70;;;19.00;99.90;;;;;;5082375;27;20024;-84
2021/09/11 02:35:57;;;;;;;9.45;8.23;;;19.00;99.90;;;;;;5074143;28;20436;-83
2021/09/11 02:38:22;;;;;;;10.07;8.35;;;18.90;99.90;;;;;;5067188;27;20035;-82
2021/09/11 02:40:48;;;;;;;10.95;8.82;;;19.00;99.90;;;;;;5084980;28;20421;-83
2021/09/11 02:43:13;;;;;;;11.80;10.25;;;19.00;99.90;;;;;;5074858;28;20479;-83
2021/09/11 02:45:39;;;;;;;14.25;12.48;;;18.80;99.90;;;;;;5070441;27;20387;-83
2021/09/11 02:48:04;;;;;;;17.05;13.27;;;18.80;99.90;;;;;;5062948;28;20031;-84
2021/09/11 02:50:30;;;;;;;14.18;10.75;;;18.80;99.90;;;;;;5069611;28;20036;-82
2021/09/11 02:52:55;;;;;;;13.75;9.73;;;18.80;99.90;;;;;;5071159;28;20035;-83
2021/09/11 02:55:21;;;;;;;17.63;12.73;;;18.80;99.90;;;;;;5079553;28;20040;-82
2021/09/11 02:57:47;;;;;;;17.92;14.60;;;18.80;99.90;;;;;;5089387;28;20475;-82
2021/09/11 03:00:13;;;;;;;19.83;13.80;;;18.70;99.90;;;;;;5098758;28;20040;-83
2021/09/11 03:02:38;;;;;;;11.60;10.18;;;18.70;99.90;;;;;;5086836;28;20039;-83
2021/09/11 03:05:04;;;;;;;17.60;11.93;;;18.60;99.90;;;;;;5068006;27;20028;-83
2021/09/11 03:07:30;;;;;;;18.00;15.73;;;18.60;99.90;;;;;;5101035;28;20028;-83
2021/09/11 03:09:55;;;;;;;21.02;15.65;;;18.60;99.90;;;;;;5078247;28;20032;-83
2021/09/11 03:12:21;;;;;;;14.60;11.30;;;18.60;99.90;;;;;;5069687;28;20765;-83
2021/09/11 03:14:46;;;;;;;14.93;11.23;;;18.60;99.90;;;;;;5084235;28;20027;-82
2021/09/11 03:17:12;;;;;;;19.65;13.60;;;18.70;99.90;;;;;;5068927;28;20054;-83
2021/09/11 03:19:37;;;;;;;12.13;10.38;;;18.60;99.90;;;;;;5082154;28;20016;-82
2021/09/11 03:22:03;;;;;;;18.13;14.07;;;18.70;99.90;;;;;;5086394;28;20065;-83
2021/09/11 03:24:29;;;;;;;16.10;13.02;;;18.60;99.90;;;;;;5087218;28;20031;-84
2021/09/11 03:27:02;;;;;;;17.63;12.73;;;18.60;99.90;;;;;;5084890;28;20443;-83
2021/09/11 03:29:28;;;;;;;16.50;12.68;;;18.50;99.90;;;;;;5074063;28;20510;-82
2021/09/11 03:31:53;;;;;;;25.15;16.55;;;18.50;99.90;;;;;;5085929;28;20032;-82
2021/09/11 03:34:19;;;;;;;17.00;13.00;;;18.50;99.90;;;;;;5085127;28;20028;-83
2021/09/11 03:36:44;;;;;;;25.95;18.25;;;18.50;99.90;;;;;;5084064;28;20016;-82
2021/09/11 03:39:10;;;;;;;18.95;15.50;;;18.50;99.90;;;;;;5069616;28;20020;-82
2021/09/11 03:41:35;;;;;;;16.00;12.85;;;18.70;99.90;;;;;;5078583;28;20048;-82
2021/09/11 03:44:01;;;;;;;18.38;13.30;;;18.60;99.90;;;;;;5087967;28;20051;-82
2021/09/11 03:46:30;;;;;;;22.17;16.25;;;18.60;99.90;;;;;;5086276;28;20092;-82
2021/09/11 03:48:58;;;;;;;14.27;12.05;;;18.70;99.90;;;;;;5076220;28;20031;-83
2021/09/11 03:51:23;;;;;;;18.10;14.02;;;18.60;99.90;;;;;;5082470;28;20496;-84
2021/09/11 03:53:49;;;;;;;16.58;12.65;;;18.60;99.90;;;;;;5086487;28;20026;-83
2021/09/11 03:56:14;;;;;;;17.42;14.02;;;18.50;99.90;;;;;;5071067;28;20032;-83
2021/09/11 03:58:40;;;;;;;18.85;15.85;;;18.60;99.90;;;;;;5085375;28;20051;-82
2021/09/11 04:01:05;;;;;;;23.73;18.88;;;18.70;99.90;;;;;;5069422;28;20478;-84
2021/09/11 04:03:32;;;;;;;23.48;16.77;;;18.70;99.90;;;;;;5082914;28;20084;-83
2021/09/11 04:05:58;;;;;;;18.15;15.73;;;18.70;99.90;;;;;;5081093;28;20027;-82
2021/09/11 04:08:24;;;;;;;19.35;14.57;;;18.60;99.90;;;;;;5066803;28;20030;-83
2021/09/11 04:10:50;;;;;;;17.70;14.05;;;18.60;99.90;;;;;;5081518;28;20406;-82
2021/09/11 04:13:16;;;;;;;15.27;13.15;;;18.60;99.90;;;;;;5073069;28;20408;-83
2021/09/11 04:15:41;;;;;;;21.98;15.95;;;18.60;99.90;;;;;;5084857;28;20028;-82
2021/09/11 04:18:07;;;;;;;21.45;15.95;;;18.50;99.90;;;;;;5083373;28;20031;-83
2021/09/11 04:20:32;;;;;;;25.17;19.98;;;18.60;99.90;;;;;;5073169;28;20027;-82
2021/09/11 04:22:58;;;;;;;18.75;14.32;;;18.50;99.90;;;;;;5082843;28;20029;-83
2021/09/11 04:25:24;;;;;;;21.98;16.30;;;18.50;99.90;;;;;;5085185;28;20043;-82
2021/09/11 04:27:49;;;;;;;23.67;17.60;;;18.50;99.90;;;;;;5084253;28;20028;-82
2021/09/11 04:30:15;;;;;;;20.45;14.48;;;18.40;99.90;;;;;;5071033;28;20075;-82
2021/09/11 04:32:40;;;;;;;29.45;21.52;;;18.40;99.90;;;;;;5086904;28;20027;-83
2021/09/11 04:35:06;;;;;;;24.00;15.25;;;18.50;99.90;;;;;;5066151;28;20176;-83
2021/09/11 04:37:32;;;;;;;23.75;16.42;;;18.40;99.90;;;;;;5085167;28;20039;-83
2021/09/11 04:39:58;;;;;;;22.90;15.85;;;18.40;99.90;;;;;;5090927;28;20024;-83
2021/09/11 04:42:24;;;;;;;18.55;14.98;;;18.40;99.90;;;;;;5075361;28;20036;-82
2021/09/11 04:44:49;;;;;;;18.95;14.15;;;18.40;99.90;;;;;;5087895;28;20031;-82
2021/09/11 04:47:15;;;;;;;24.67;16.30;;;18.40;99.90;;;;;;5085933;28;20032;-82
2021/09/11 04:49:41;;;;;;;18.38;14.55;;;18.40;99.90;;;;;;5088603;28;20403;-83
2021/09/11 04:52:06;;;;;;;20.48;15.60;;;18.40;99.90;;;;;;5087529;28;20383;-83
2021/09/11 04:54:32;;;;;;;24.15;17.48;;;18.40;99.90;;;;;;5102622;28;20036;-83
2021/09/11 04:56:57;;;;;;;20.90;12.25;;;18.50;99.90;;;;;;5066601;28;20084;-83
2021/09/11 04:59:23;;;;;;;15.13;10.15;;;18.30;99.90;;;;;;5073840;28;20032;-85
2021/09/11 05:01:49;;;;;;;16.00;12.10;;;18.40;99.90;;;;;;5089476;28;20024;-83
2021/09/11 05:04:14;;;;;;;15.45;11.23;;;18.40;99.90;;;;;;5073548;28;20051;-83
2021/09/11 05:06:40;;;;;;;18.42;11.77;;;18.30;99.90;;;;;;5088551;28;20082;-84
2021/09/11 05:09:05;;;;;;;13.48;11.27;;;18.40;99.90;;;;;;5074553;28;20047;-83
2021/09/11 05:11:31;;;;;;;13.98;11.20;;;18.30;99.90;;;;;;5091695;28;20100;-83
2021/09/11 05:14:12;;;;;;;15.07;10.40;;;18.30;99.90;;;;;;5083954;28;20100;-83
2021/09/11 05:16:37;;;;;;;13.60;9.57;;;18.30;99.90;;;;;;5102881;28;20035;-83
2021/09/11 05:19:03;;;;;;;12.80;9.52;;;18.30;99.90;;;;;;5077057;28;20028;-83
2021/09/11 05:21:28;;;;;;;13.38;11.02;;;18.20;99.90;;;;;;5091136;28;20380;-83
2021/09/11 05:23:54;;;;;;;11.30;10.07;;;18.30;99.90;;;;;;5104103;28;20077;-83
2021/09/11 05:26:19;;;;;;;19.30;12.35;;;18.20;99.90;;;;;;5072083;28;20031;-82
2021/09/11 05:28:45;;;;;;;14.85;8.32;;;18.20;99.90;;;;;;5083761;28;20024;-83
2021/09/11 05:31:10;;;;;;;15.65;10.60;;;18.20;99.90;;;;;;5085258;28;20432;-84
2021/09/11 05:33:36;;;;;;;12.00;8.45;;;18.20;99.90;;;;;;5073541;28;20051;-84
2021/09/11 05:36:01;;;;;;;9.57;7.72;;;18.20;99.90;;;;;;5071216;28;20445;-83
2021/09/11 05:38:44;;;;;;;9.55;7.72;;;18.20;99.90;;;;;;5057928;27;20131;-83
2021/09/11 05:41:10;;;;;;;11.13;7.20;;;18.10;99.90;;;;;;5103154;28;20058;-85
2021/09/11 05:43:35;;;;;;;11.70;8.20;;;18.20;99.90;;;;;;5090251;28;20109;-84
2021/09/11 05:46:01;;;;;;;10.02;7.60;;;18.20;99.90;;;;;;5072999;27;20539;-83
2021/09/11 05:48:27;;;;;;;12.40;8.10;;;18.20;99.90;;;;;;5105868;28;20070;-84
2021/09/11 05:50:52;;;;;;;9.38;6.43;;;18.10;99.90;;;;;;5104818;28;20042;-83
2021/09/11 05:53:19;;;;;;;9.57;7.32;;;18.10;99.90;;;;;;5073678;28;20032;-83
2021/09/11 05:55:44;;;;;;;8.77;6.55;;;18.10;99.90;;;;;;5087994;27;20077;-84
2021/09/11 05:58:10;;;;;;;7.65;5.07;;;18.20;99.90;;;;;;5087849;28;20036;-83
2021/09/11 06:00:36;;;;;;;8.93;6.22;;;18.20;99.90;;;;;;5065357;28;20089;-83
2021/09/11 06:03:01;;;;;;;8.35;5.90;;;18.10;99.90;;;;;;5104689;28;20040;-83
2021/09/11 06:05:42;;;;;;;11.05;5.32;;;18.10;99.90;;;;;;5088572;28;20043;-83
2021/09/11 06:08:08;;;;;;;7.47;5.32;;;18.20;99.90;;;;;;5069196;28;20107;-83
2021/09/11 06:10:33;;;;;;;8.25;6.05;;;18.20;99.90;;;;;;5076353;28;20122;-84
2021/09/11 06:13:02;;;;;;;6.50;4.20;;;18.20;99.90;;;;;;5094445;28;20039;-84
2021/09/11 06:15:27;;;;;;;6.07;4.05;;;18.10;99.90;;;;;;5069140;28;20119;-84
2021/09/11 06:17:53;;;;;;;11.82;5.28;;;18.10;99.80;;;;;;5086636;28;20108;-84
2021/09/11 06:20:19;;;;;;;7.75;4.50;;;18.10;99.70;;;;;;5072197;28;20027;-83
2021/09/11 06:22:45;;;;;;;4.75;3.50;;;18.10;99.90;;;;;;5061231;28;20084;-83
2021/09/11 06:25:11;;;;;;;12.77;4.25;;;18.10;99.90;;;;;;5092719;28;20024;-84
2021/09/11 06:27:37;;;;;;;6.07;3.97;;;18.20;99.90;;;;;;5070830;28;20032;-83
2021/09/11 06:30:03;;;;;;;6.68;3.30;;;18.20;99.70;;;;;;5071817;28;20047;-84
2021/09/11 06:32:30;;;;;;;5.47;4.35;;;18.20;99.80;;;;;;5074004;28;20031;-83
2021/09/11 06:34:56;;;;;;;5.40;4.53;;;18.20;99.80;;;;;;5054772;28;20113;-84
2021/09/11 06:37:21;;;;;;;6.07;3.78;;;18.30;99.70;;;;;;5072019;28;20533;-84
2021/09/11 06:39:47;;;;;;;4.10;3.60;;;18.30;99.50;;;;;;5089184;28;20049;-83
2021/09/11 06:42:14;;;;;;;7.43;3.50;;;18.30;99.50;;;;;;5072177;28;20031;-85
2021/09/11 06:44:40;;;;;;;6.90;4.15;;;18.40;99.30;;;;;;5077361;28;20024;-84
2021/09/11 06:47:06;;;;;;;6.97;3.63;;;18.40;99.20;;;;;;5069499;28;20034;-85
2021/09/11 06:49:31;;;;;;;6.20;3.35;;;18.50;99.30;;;;;;5075505;28;20035;-84
2021/09/11 06:51:57;;;;;;;3.55;2.67;;;18.50;99.30;;;;;;5070475;28;20024;-85
2021/09/11 06:54:22;;;;;;;4.57;3.10;;;18.50;99.20;;;;;;5066329;28;20035;-83
2021/09/11 06:56:48;;;;;;;3.63;3.25;;;18.50;98.90;;;;;;5086363;28;20028;-84
2021/09/11 06:59:13;;;;;;;5.20;2.70;;;18.50;98.90;;;;;;5058670;28;20048;-84
2021/09/11 07:01:39;;;;;;;4.60;2.95;;;18.50;98.90;;;;;;5065570;28;20507;-84
2021/09/11 07:04:04;;;;;;;4.70;3.15;;;18.50;98.80;;;;;;5068043;28;20035;-84
2021/09/11 07:06:31;;;;;;;7.40;3.13;;;18.50;99.10;;;;;;5100257;28;20020;-83
2021/09/11 07:08:56;;;;;;;4.43;2.60;;;18.50;98.90;;;;;;5085689;28;20431;-83
2021/09/11 07:11:22;;;;;;;4.95;3.08;;;18.60;98.90;;;;;;5104656;27;20032;-83
2021/09/11 07:13:48;;;;;;;6.47;2.70;;;18.80;99.10;;;;;;5071706;27;20019;-84
2021/09/11 07:16:13;;;;;;;4.30;3.35;;;18.90;99.00;;;;;;5073125;28;20069;-84
2021/09/11 07:18:39;;;;;;;3.58;2.60;;;18.90;98.40;;;;;;5072439;28;20387;-84
2021/09/11 07:21:04;;;;;;;7.38;3.45;;;19.00;98.40;;;;;;5080995;28;20034;-84
2021/09/11 07:23:30;;;;;;;3.53;2.08;;;19.00;98.30;;;;;;5083294;28;20055;-83
2021/09/11 07:25:56;;;;;;;6.50;3.33;;;19.00;97.90;;;;;;5076763;28;20071;-83
2021/09/11 07:28:28;;;;;;;4.35;2.50;;;19.20;98.60;;;;;;5082508;28;20040;-84
2021/09/11 07:30:54;;;;;;;4.20;3.03;;;19.10;97.70;;;;;;5072841;28;20111;-84
2021/09/11 07:33:19;;;;;;;3.65;2.78;;;19.10;98.20;;;;;;5088139;28;20471;-84
2021/09/11 07:35:45;;;;;;;4.85;3.00;;;19.10;97.80;;;;;;5083660;28;20111;-82
2021/09/11 07:38:11;;;;;;;4.78;2.58;;;19.10;97.90;;;;;;5070481;28;20339;-84
2021/09/11 07:40:37;;;;;;;5.35;3.00;;;19.20;97.70;;;;;;5072466;28;20119;-83
2021/09/11 07:43:04;;;;;;;4.82;2.53;;;19.20;97.50;;;;;;5071569;28;20502;-84
2021/09/11 07:45:29;;;;;;;6.32;3.00;;;19.00;97.40;;;;;;5088572;28;20111;-83
2021/09/11 07:47:57;;;;;;;5.05;2.65;;;19.10;97.50;;;;;;5071619;28;20110;-84
2021/09/11 07:50:26;;;;;;;7.57;2.72;;;19.10;97.40;;;;;;5083223;28;20821;-84
2021/09/11 07:52:53;;;;;;;4.15;3.00;;;19.10;97.50;;;;;;5065169;27;20550;-83
2021/09/11 07:55:18;;;;;;;6.10;2.72;;;19.20;97.70;;;;;;5070084;28;20040;-84
2021/09/11 07:57:44;;;;;;;7.88;2.92;;;19.10;97.20;;;;;;5072169;28;20594;-84
2021/09/11 08:00:12;;;;;;;3.85;2.58;;;19.20;97.60;;;;;;5072117;28;20031;-84
2021/09/11 08:02:40;;;;;;;5.13;2.25;;;19.30;97.30;;;;;;5100450;28;20039;-83
2021/09/11 08:05:06;;;;;;;4.07;2.40;;;19.20;97.20;;;;;;5064742;28;20051;-83
2021/09/11 08:07:31;;;;;;;6.63;2.75;;;19.20;97.10;;;;;;5071247;28;20059;-84
2021/09/11 08:09:57;;;;;;;4.43;2.40;;;19.20;97.20;;;;;;5071446;28;20035;-83
2021/09/11 08:12:22;;;;;;;4.55;2.72;;;19.20;97.20;;;;;;5086631;28;20042;-83
2021/09/11 08:14:48;;;;;;;5.40;2.45;;;19.30;97.00;;;;;;5089062;28;20024;-84
2021/09/11 08:17:18;;;;;;;4.35;3.05;;;19.20;97.10;;;;;;5071513;28;20048;-83
2021/09/11 08:19:43;;;;;;;4.82;2.30;;;19.30;97.20;;;;;;5070763;28;20111;-83
2021/09/11 08:22:09;;;;;;;4.50;2.72;;;19.30;97.10;;;;;;5062284;28;20115;-86
2021/09/11 08:24:34;;;;;;;6.45;2.50;;;19.30;97.30;;;;;;5079745;28;20118;-84
2021/09/11 08:27:00;;;;;;;6.03;2.30;;;19.50;97.30;;;;;;5073465;28;20971;-84
2021/09/11 08:29:25;;;;;;;5.25;2.78;;;19.60;97.40;;;;;;5075098;28;20557;-83
2021/09/11 08:31:51;;;;;;;4.97;2.55;;;19.60;97.40;;;;;;5074171;28;20706;-84
2021/09/11 08:34:17;;;;;;;3.85;2.38;;;19.90;96.90;;;;;;5076126;28;20066;-84
2021/09/11 08:36:42;;;;;;;4.75;3.05;;;20.00;96.70;;;;;;5074698;27;20027;-83
2021/09/11 08:39:08;;;;;;;4.95;2.50;;;20.10;96.70;;;;;;5073706;28;20024;-83
2021/09/11 08:41:33;;;;;;;6.05;2.40;;;20.20;97.00;;;;;;5074858;28;20024;-85
2021/09/11 08:44:01;;;;;;;4.00;2.10;;;20.50;96.40;;;;;;5092990;28;20395;-85
2021/09/11 08:46:27;;;;;;;4.95;1.95;;;20.70;96.20;;;;;;5074783;28;20130;-84
2021/09/11 08:48:53;;;;;;;2.75;1.77;;;21.00;95.50;;;;;;5087281;28;20023;-84
2021/09/11 08:51:27;;;;;;;2.30;1.85;;;21.10;95.30;;;;;;5092541;28;20483;-85
2021/09/11 08:53:52;;;;;;;1.88;1.73;;;21.40;95.20;;;;;;5071830;28;20407;-84
2021/09/11 08:56:18;;;;;;;1.85;1.30;;;21.50;94.60;;;;;;5091329;28;20035;-84
2021/09/11 08:59:04;;;;;;;3.58;1.45;;;21.70;94.50;;;;;;5090598;28;20039;-84
2021/09/11 09:01:30;;;;;;;6.28;1.83;;;21.70;94.40;;;;;;5098834;28;20408;-83
2021/09/11 09:03:55;;;;;;;2.80;2.08;;;21.90;94.20;;;;;;5070755;28;20032;-84
2021/09/11 09:06:32;;;;;;;3.50;2.00;;;22.00;93.50;;;;;;5072395;28;20036;-84
2021/09/11 09:09:11;;;;;;;3.50;1.85;;;22.00;94.00;;;;;;5071669;28;20035;-83
2021/09/11 09:11:42;;;;;;;2.63;1.48;;;22.10;93.80;;;;;;5103131;28;20036;-84
2021/09/11 09:14:12;;;;;;;2.75;1.58;;;22.30;95.00;;;;;;5087692;27;20035;-83
2021/09/11 09:16:38;;;;;;;2.13;1.40;;;22.40;92.80;;;;;;5073951;28;20028;-84
2021/09/11 09:19:05;;;;;;;4.90;1.30;;;22.70;93.70;;;;;;5108495;27;20039;-83
2021/09/11 09:21:31;;;;;;;1.50;1.40;;;22.80;95.00;;;;;;5098621;28;20508;-83
2021/09/11 09:24:03;;;;;;;1.50;1.40;;;22.90;94.80;;;;;;5071255;28;20078;-82
2021/09/11 09:26:29;;;;;;;4.30;1.40;;;23.00;94.60;;;;;;5082411;28;20032;-83
2021/09/11 09:29:10;;;;;;;2.58;1.40;;;23.00;94.60;;;;;;5081070;28;20032;-82
2021/09/11 09:31:36;;;;;;;1.40;1.10;;;23.30;92.80;;;;;;5085036;28;20418;-82
2021/09/11 09:34:30;;;;;;;1.77;1.48;;;23.30;92.70;;;;;;5066857;27;20417;-83
2021/09/11 09:36:57;;;;;;;1.63;1.05;;;23.30;92.40;;;;;;5076451;28;20122;-83
2021/09/11 09:39:23;;;;;;;4.03;1.23;;;23.40;92.60;;;;;;5087317;28;20059;-84
2021/09/11 09:41:53;;;;;;;1.52;1.20;;;23.50;93.50;;;;;;5083202;28;20024;-83
2021/09/11 09:44:20;;;;;;;2.55;1.20;;;23.70;95.00;;;;;;5061623;28;20043;-83
2021/09/11 09:46:46;;;;;;;4.25;1.50;;;23.80;95.00;;;;;;5088148;28;20391;-83
2021/09/11 09:49:16;;;;;;;2.47;1.20;;;23.90;94.90;;;;;;5075234;28;20047;-83
2021/09/11 09:51:41;;;;;;;3.03;1.60;;;23.90;92.20;;;;;;5105591;27;20036;-83
2021/09/11 09:54:07;;;;;;;3.55;2.00;;;24.00;94.90;;;;;;5073693;28;20514;-83
2021/09/11 09:56:32;;;;;;;1.30;1.20;;;24.10;94.30;;;;;;5075500;28;20118;-83
2021/09/11 09:59:20;;;;;;;5.65;1.10;;;24.10;91.40;;;;;;5070447;28;20042;-86
2021/09/11 10:01:49;;;;;;;4.07;2.08;;;23.90;92.10;;;;;;5087069;28;20030;-83
2021/09/11 10:04:19;;;;;;;3.33;1.90;;;24.10;93.60;;;;;;5095218;27;20032;-82
2021/09/11 10:06:50;;;;;;;4.60;1.40;;;24.40;94.20;;;;;;5090474;27;20054;-82
2021/09/11 10:09:15;;;;;;;1.95;1.40;;;24.50;94.20;;;;;;5089601;28;20028;-85
2021/09/11 10:11:44;;;;;;;3.00;1.73;;;24.90;93.60;;;;;;5088150;28;20109;-83
2021/09/11 10:14:12;;;;;;;2.95;1.90;;;24.80;93.20;;;;;;5084714;28;20486;-83
2021/09/11 10:16:39;;;;;;;4.05;1.38;;;24.70;92.20;;;;;;5064124;27;20110;-83
2021/09/11 10:19:23;;;;;;;1.48;1.38;;;25.20;93.80;;;;;;5086586;28;20036;-83
2021/09/11 10:22:05;;;;;;;1.90;1.40;;;25.30;91.40;;;;;;5070125;28;20483;-82
2021/09/11 10:24:49;;;;;;;4.00;1.50;;;25.20;93.10;;;;;;5084498;28;20479;-85
2021/09/11 10:27:22;;;;;;;1.45;1.30;;;25.40;92.80;;;;;;5071408;28;20036;-84
2021/09/11 10:29:56;;;;;;;2.42;1.25;;;25.40;89.40;;;;;;5083784;28;20480;-84
2021/09/11 10:32:25;;;;;;;1.55;1.40;;;25.10;88.70;;;;;;5065538;27;20039;-84
2021/09/11 10:35:08;;;;;;;1.83;1.58;;;25.40;90.80;;;;;;5106598;28;20415;-84
2021/09/11 10:37:57;;;;;;;1.70;1.50;;;25.00;87.20;;;;;;5083427;28;20073;-84
2021/09/11 10:40:32;;;;;;;2.78;1.60;;;25.50;92.80;;;;;;5091706;28;20393;-84
2021/09/11 10:43:09;;;;;;;2.92;1.50;;;25.90;92.60;;;;;;5099282;28;20232;-85
2021/09/11 10:45:44;;;;;;;2.22;1.38;;;26.10;91.30;;;;;;5100511;28;20028;-85
2021/09/11 10:48:28;;;;;;;2.67;1.67;;;26.20;91.50;;;;;;5093549;28;20020;-85
2021/09/11 10:51:21;;;;;;;2.22;1.60;;;26.10;91.60;;;;;;5105520;27;20520;-85
2021/09/11 10:54:23;;;;;;;2.53;1.40;;;26.10;90.30;;;;;;5102465;27;20043;-85
2021/09/11 10:56:52;;;;;;;2.25;1.70;;;26.10;87.30;;;;;;5083128;28;20097;-82
2021/09/11 10:59:23;;;;;;;3.35;2.00;;;26.10;91.10;;;;;;5101289;28;20059;-82
2021/09/11 11:02:02;;;;;;;2.35;1.75;;;26.30;91.20;;;;;;5107634;28;20031;-83
2021/09/11 11:04:47;;;;;;;5.30;1.45;;;26.50;90.80;;;;;;5072284;28;20039;-82
2021/09/11 11:07:15;;;;;;;3.30;1.67;;;26.50;90.40;;;;;;5101534;28;20506;-83
2021/09/11 11:09:51;;;;;;;2.75;1.50;;;26.30;88.30;;;;;;5079386;28;20089;-83
2021/09/11 11:12:41;;;;;;;2.13;1.63;;;26.50;90.60;;;;;;5086466;28;20028;-83
2021/09/11 11:15:11;;;;;;;1.95;1.50;;;26.50;90.30;;;;;;5092399;27;20559;-83
2021/09/11 11:17:38;;;;;;;3.90;1.92;;;26.50;90.30;;;;;;5067722;28;20110;-83
2021/09/11 11:20:05;;;;;;;3.40;1.60;;;26.50;89.80;;;;;;5069372;28;20570;-83
2021/09/11 11:22:35;;;;;;;2.25;1.80;;;26.40;90.00;;;;;;5073137;27;20099;-83
2021/09/11 11:25:05;;;;;;;2.67;1.67;;;26.40;90.00;;;;;;5060638;28;20028;-84
2021/09/11 11:27:39;;;;;;;2.35;1.55;;;26.50;89.90;;;;;;5073256;28;20058;-84
2021/09/11 11:30:07;;;;;;;2.67;1.70;;;26.30;88.10;;;;;;5040747;28;20032;-83
2021/09/11 11:32:35;;;;;;;5.10;2.20;;;26.20;89.50;;;;;;5098270;28;20047;-83
2021/09/11 11:35:00;;;;;;;2.72;2.22;;;26.20;88.10;;;;;;5070923;28;20024;-83
2021/09/11 11:37:38;;;;;;;2.38;1.73;;;26.20;90.10;;;;;;5064728;28;20028;-84
2021/09/11 11:40:13;;;;;;;2.92;1.77;;;26.20;88.70;;;;;;5081413;28;20488;-83
2021/09/11 11:42:41;;;;;;;2.92;2.20;;;26.30;88.70;;;;;;5100986;27;20024;-84
2021/09/11 11:45:08;;;;;;;3.92;1.70;;;26.30;89.60;;;;;;5068317;27;20024;-83
2021/09/11 11:47:58;;;;;;;3.20;1.80;;;26.30;89.20;;;;;;5072986;28;20089;-85
2021/09/11 11:50:27;;;;;;;4.70;2.47;;;26.10;89.10;;;;;;5090037;28;20042;-83
2021/09/11 11:53:07;;;;;;;2.75;1.73;;;26.10;89.30;;;;;;5071289;28;20031;-84
2021/09/11 11:55:35;;;;;;;3.47;2.00;;;26.10;89.10;;;;;;5068256;28;20023;-84
2021/09/11 11:58:14;;;;;;;4.65;1.83;;;26.10;89.00;;;;;;5080747;28;20028;-83
2021/09/11 12:00:43;;;;;;;3.08;1.98;;;26.10;89.60;;;;;;5074165;28;20118;-83
2021/09/11 12:03:34;;;;;;;2.40;1.80;;;26.00;89.50;;;;;;5107139;27;20028;-83
2021/09/11 12:06:00;;;;;;;3.63;1.77;;;25.90;86.30;;;;;;5105998;27;20555;-83
2021/09/11 12:08:27;;;;;;;2.63;1.60;;;25.70;87.20;;;;;;5088021;28;20501;-84
2021/09/11 12:10:55;;;;;;;3.60;1.60;;;25.60;85.90;;;;;;5083565;28;20051;-83
2021/09/11 12:13:21;;;;;;;4.63;1.92;;;25.50;87.60;;;;;;5075858;28;20039;-83
2021/09/11 12:15:47;;;;;;;4.38;2.03;;;25.20;87.00;;;;;;5072436;28;20132;-82
2021/09/11 12:18:15;;;;;;;2.35;2.10;;;25.40;87.40;;;;;;4737028;28;10000608;-83
2021/09/11 12:20:47;;;;;;;5.20;1.92;;;25.40;86.40;;;;;;5089489;27;20030;-83
2021/09/11 12:23:16;;;;;;;2.88;1.80;;;25.30;86.30;;;;;;5105339;27;20119;-83
2021/09/11 12:25:52;;;;;;;3.67;1.63;;;25.30;89.20;;;;;;5089679;28;20032;-83
2021/09/11 12:28:39;;;;;;;3.60;1.75;;;25.50;87.90;;;;;;5102668;27;20084;-83
2021/09/11 12:31:05;;;;;;;2.95;2.55;;;25.60;87.60;;;;;;5108489;28;20079;-83
2021/09/11 12:33:40;;;;;;;3.60;2.10;;;25.60;85.50;;;;;;5103353;28;20027;-84
2021/09/11 12:36:23;;;;;;;2.45;1.83;;;25.70;88.30;;;;;;5079544;28;20501;-83
2021/09/11 12:38:49;;;;;;;3.60;2.42;;;25.70;86.30;;;;;;5092226;28;20032;-84
2021/09/11 12:41:15;;;;;;;3.35;2.10;;;25.70;87.00;;;;;;5072949;28;20036;-84
2021/09/11 12:43:41;;;;;;;4.35;2.17;;;25.80;86.90;;;;;;5078845;28;20076;-84
2021/09/11 12:46:06;;;;;;;2.35;2.03;;;25.80;84.80;;;;;;5090347;28;20035;-84